createdAt,value
2018-04-01T00:01:25.704Z,26.70
2018-04-01T00:03:52.361Z,33.03
2018-04-01T00:06:18.985Z,25.80
2018-04-01T00:08:45.073Z,27.03
2018-04-01T00:11:11.024Z,29.80
2018-04-01T00:13:36.919Z,28.13
2018-04-01T00:16:03.585Z,30.53
2018-04-01T00:18:29.480Z,29.60
2018-04-01T00:20:55.420Z,27.27
2018-04-01T00:23:21.353Z,28.03
2018-04-01T00:25:47.250Z,23.47
2018-04-01T00:28:13.175Z,25.17
2018-04-01T00:30:39.068Z,26.97
2018-04-01T00:33:05.035Z,27.73
2018-04-01T00:35:30.956Z,28.47
2018-04-01T00:37:56.883Z,31.20
2018-04-01T00:40:22.783Z,33.07
2018-04-01T00:42:48.715Z,27.57
2018-04-01T00:45:14.901Z,26.10
2018-04-01T00:47:40.910Z,29.33
2018-04-01T00:50:06.774Z,24.80
2018-04-01T00:52:33.844Z,24.60
2018-04-01T00:54:59.740Z,26.20
2018-04-01T00:57:27.046Z,26.97
2018-04-01T00:59:52.977Z,25.00
2018-04-01T01:02:18.858Z,23.40
2018-04-01T01:04:44.752Z,22.47
2018-04-01T01:07:10.868Z,26.30
2018-04-01T01:09:37.506Z,23.90
2018-04-01T01:12:04.171Z,26.33
2018-04-01T01:14:30.090Z,23.70
2018-04-01T01:16:56.755Z,24.90
2018-04-01T01:19:22.725Z,26.27
2018-04-01T01:21:48.969Z,26.63
2018-04-01T01:24:14.871Z,24.93
2018-04-01T01:26:40.793Z,25.20
2018-04-01T01:29:07.503Z,27.50
2018-04-01T01:31:33.451Z,23.20
2018-04-01T01:33:59.344Z,26.80
2018-04-01T01:36:25.251Z,27.50
2018-04-01T01:38:51.173Z,26.13
2018-04-01T01:41:17.821Z,27.10
2018-04-01T01:43:44.747Z,26.33
2018-04-01T01:46:10.632Z,24.60
2018-04-01T01:48:36.595Z,31.63
2018-04-01T01:51:02.499Z,31.17
2018-04-01T01:53:28.444Z,29.27
2018-04-01T01:55:54.374Z,27.13
2018-04-01T01:58:20.293Z,25.80
2018-04-01T02:00:46.974Z,25.63
2018-04-01T02:03:12.876Z,32.53
2018-04-01T02:05:39.539Z,29.43
2018-04-01T02:08:05.547Z,29.43
2018-04-01T02:10:31.667Z,31.77
2018-04-01T02:12:57.577Z,31.17
2018-04-01T02:15:23.475Z,30.00
2018-04-01T02:17:49.398Z,27.93
2018-04-01T02:20:16.062Z,33.17
2018-04-01T02:22:42.691Z,30.07
2018-04-01T02:25:08.611Z,35.07
2018-04-01T02:27:34.527Z,30.30
2018-04-01T02:30:00.448Z,27.23
2018-04-01T02:32:26.372Z,30.63
2018-04-01T02:34:52.291Z,29.40
2018-04-01T02:37:18.214Z,29.90
2018-04-01T02:39:44.501Z,29.63
2018-04-01T02:42:10.468Z,25.93
2018-04-01T02:44:36.384Z,32.40
2018-04-01T02:47:02.314Z,31.00
2018-04-01T02:49:28.243Z,28.93
2018-04-01T02:51:54.160Z,27.30
2018-04-01T02:54:20.063Z,27.33
2018-04-01T02:56:46.707Z,27.97
2018-04-01T02:59:13.358Z,24.03
2018-04-01T03:01:39.990Z,29.50
2018-04-01T03:04:06.025Z,25.50
2018-04-01T03:06:31.940Z,22.73
2018-04-01T03:08:57.892Z,30.53
2018-04-01T03:11:23.853Z,27.93
2018-04-01T03:13:50.471Z,26.17
2018-04-01T03:16:16.516Z,25.00
2018-04-01T03:18:42.395Z,23.27
2018-04-01T03:21:08.285Z,25.47
2018-04-01T03:23:34.263Z,26.67
2018-04-01T03:26:00.216Z,26.20
2018-04-01T03:28:26.143Z,24.93
2018-04-01T03:30:52.024Z,27.33
2018-04-01T03:33:18.668Z,24.90
2018-04-01T03:35:44.588Z,26.73
2018-04-01T03:38:10.543Z,24.17
2018-04-01T03:40:36.723Z,30.10
2018-04-01T03:43:02.681Z,26.27
2018-04-01T03:45:28.566Z,24.30
2018-04-01T03:47:55.243Z,19.73
2018-04-01T03:50:21.196Z,22.93
2018-04-01T03:52:47.082Z,23.93
2018-04-01T03:55:13.762Z,26.97
2018-04-01T03:57:39.671Z,22.70
2018-04-01T04:00:06.340Z,24.07
2018-04-01T04:02:32.671Z,22.33
2018-04-01T04:04:59.327Z,23.50
2018-04-01T04:07:25.983Z,22.63
2018-04-01T04:09:51.889Z,20.47
2018-04-01T04:12:17.793Z,26.93
2018-04-01T04:14:43.713Z,23.53
2018-04-01T04:17:09.602Z,20.33
2018-04-01T04:19:36.296Z,28.93
2018-04-01T04:22:02.234Z,24.77
2018-04-01T04:24:28.135Z,25.20
2018-04-01T04:26:54.793Z,25.13
2018-04-01T04:29:20.694Z,25.90
2018-04-01T04:31:46.593Z,27.93
2018-04-01T04:34:12.514Z,22.83
2018-04-01T04:36:38.402Z,28.60
2018-04-01T04:39:05.027Z,27.73
2018-04-01T04:41:31.124Z,25.90
2018-04-01T04:43:57.031Z,25.60
2018-04-01T04:46:23.941Z,22.53
2018-04-01T04:48:49.860Z,25.37
2018-04-01T04:51:15.730Z,27.40
2018-04-01T04:53:41.598Z,24.47
2018-04-01T04:56:08.273Z,25.90
2018-04-01T04:58:34.296Z,24.23
2018-04-01T05:01:00.195Z,25.00
2018-04-01T05:03:26.388Z,20.13
2018-04-01T05:05:52.296Z,22.70
2018-04-01T05:08:18.218Z,25.50
2018-04-01T05:10:44.881Z,22.10
2018-04-01T05:13:10.779Z,23.73
2018-04-01T05:15:36.711Z,23.80
2018-04-01T05:18:02.676Z,23.50
2018-04-01T05:20:29.311Z,23.07
2018-04-01T05:22:55.226Z,24.83
2018-04-01T05:25:21.273Z,23.70
2018-04-01T05:27:47.181Z,25.93
2018-04-01T05:30:13.089Z,21.03
2018-04-01T05:32:39.046Z,22.43
2018-04-01T05:35:04.955Z,20.83
2018-04-01T05:37:30.859Z,18.43
2018-04-01T05:39:56.795Z,21.30
2018-04-01T05:42:23.437Z,21.33
2018-04-01T05:44:49.330Z,21.77
2018-04-01T05:47:15.247Z,24.33
2018-04-01T05:49:41.243Z,25.20
2018-04-01T05:52:07.147Z,20.00
2018-04-01T05:54:33.528Z,22.07
2018-04-01T05:57:00.185Z,21.97
2018-04-01T05:59:26.840Z,21.40
2018-04-01T06:04:45.235Z,17.10
2018-04-01T06:07:11.910Z,19.63
2018-04-01T06:09:37.833Z,20.10
2018-04-01T06:12:03.754Z,19.27
2018-04-01T06:14:30.395Z,19.30
2018-04-01T06:16:57.058Z,20.70
2018-04-01T06:19:23.696Z,17.27
2018-04-01T06:21:50.380Z,18.57
2018-04-01T06:24:16.308Z,19.03
2018-04-01T06:26:42.519Z,17.80
2018-04-01T06:29:08.463Z,17.03
2018-04-01T06:31:35.202Z,16.73
2018-04-01T06:34:01.906Z,16.90
2018-04-01T06:36:28.625Z,18.20
2018-04-01T06:38:54.833Z,19.03
2018-04-01T06:41:20.820Z,17.03
2018-04-01T06:43:46.813Z,18.23
2018-04-01T06:46:12.758Z,17.23
2018-04-01T06:48:38.745Z,18.43
2018-04-01T06:51:04.678Z,19.77
2018-04-01T06:53:30.850Z,18.23
2018-04-01T06:55:56.750Z,15.80
2018-04-01T06:58:22.677Z,17.23
2018-04-01T07:00:48.976Z,15.13
2018-04-01T07:03:14.869Z,16.50
2018-04-01T07:05:40.760Z,15.87
2018-04-01T07:08:07.667Z,14.53
2018-04-01T07:10:34.289Z,14.77
2018-04-01T07:13:00.193Z,13.40
2018-04-01T07:15:26.908Z,14.47
2018-04-01T07:17:52.893Z,13.57
2018-04-01T07:20:18.820Z,12.93
2018-04-01T07:22:45.445Z,15.17
2018-04-01T07:25:11.365Z,14.50
2018-04-01T07:27:37.288Z,14.73
2018-04-01T07:30:03.238Z,16.33
2018-04-01T07:32:29.130Z,11.60
2018-04-01T07:34:55.305Z,13.90
2018-04-01T07:37:21.483Z,11.17
2018-04-01T07:39:47.408Z,14.60
2018-04-01T07:42:13.286Z,12.80
2018-04-01T07:44:40.219Z,15.73
2018-04-01T07:47:06.157Z,14.17
2018-04-01T07:49:32.117Z,13.60
2018-04-01T07:51:58.026Z,13.50
2018-04-01T07:54:23.942Z,13.63
2018-04-01T07:56:50.691Z,13.27
2018-04-01T07:59:16.671Z,14.13
2018-04-01T08:01:42.583Z,14.63
2018-04-01T08:04:08.509Z,11.97
2018-04-01T08:06:35.188Z,11.87
2018-04-01T08:09:01.426Z,13.40
2018-04-01T08:11:27.358Z,13.67
2018-04-01T08:13:53.260Z,12.33
2018-04-01T08:16:19.898Z,12.07
2018-04-01T08:18:45.778Z,12.57
2018-04-01T08:21:11.695Z,12.40
2018-04-01T08:23:37.651Z,12.63
2018-04-01T08:26:03.582Z,9.93
2018-04-01T08:28:29.526Z,10.47
2018-04-01T08:30:55.419Z,11.10
2018-04-01T08:33:22.089Z,12.00
2018-04-01T08:35:48.007Z,12.57
2018-04-01T08:38:14.665Z,11.70
2018-04-01T08:40:40.604Z,12.00
2018-04-01T08:43:06.513Z,12.17
2018-04-01T08:45:33.219Z,9.70
2018-04-01T08:47:59.108Z,9.83
2018-04-01T08:50:25.743Z,9.13
2018-04-01T08:52:51.722Z,10.30
2018-04-01T08:55:17.630Z,10.23
2018-04-01T08:57:44.284Z,11.60
2018-04-01T09:00:10.968Z,10.10
2018-04-01T09:02:36.848Z,9.53
2018-04-01T09:05:03.019Z,10.50
2018-04-01T09:07:28.933Z,13.83
2018-04-01T09:09:55.572Z,10.03
2018-04-01T09:12:21.535Z,9.20
2018-04-01T09:14:48.183Z,7.10
2018-04-01T09:17:14.808Z,11.73
2018-04-01T09:19:40.998Z,9.80
2018-04-01T09:22:06.921Z,12.63
2018-04-01T09:24:32.846Z,12.47
2018-04-01T09:26:58.766Z,11.67
2018-04-01T09:29:25.406Z,12.83
2018-04-01T09:31:51.311Z,13.70
2018-04-01T09:34:17.298Z,13.50
2018-04-01T09:36:43.954Z,15.43
2018-04-01T09:39:09.882Z,17.53
2018-04-01T09:41:36.552Z,17.03
2018-04-01T09:44:02.572Z,15.77
2018-04-01T09:46:28.583Z,16.17
2018-04-01T09:48:54.495Z,13.00
2018-04-01T09:51:20.405Z,13.13
2018-04-01T09:53:46.357Z,15.63
2018-04-01T09:56:12.294Z,13.23
2018-04-01T09:58:38.163Z,11.40
2018-04-01T10:01:05.016Z,10.17
2018-04-01T10:03:31.876Z,11.27
2018-04-01T10:05:58.691Z,9.80
2018-04-01T10:08:24.768Z,11.60
2018-04-01T10:10:51.559Z,10.20
2018-04-01T10:13:17.637Z,8.93
2018-04-01T10:15:43.759Z,8.97
2018-04-01T10:18:10.527Z,8.70
2018-04-01T10:20:36.594Z,10.13
2018-04-01T10:23:03.472Z,8.37
2018-04-01T10:25:29.596Z,9.03
2018-04-01T10:27:55.727Z,8.70
2018-04-01T10:30:21.784Z,6.57
2018-04-01T10:32:47.867Z,8.67
2018-04-01T10:35:14.013Z,7.27
2018-04-01T10:37:40.088Z,7.20
2018-04-01T10:40:06.192Z,6.80
2018-04-01T10:42:32.269Z,5.60
2018-04-01T10:44:58.359Z,5.97
2018-04-01T10:47:24.425Z,6.50
2018-04-01T10:49:51.207Z,5.00
2018-04-01T10:52:17.280Z,5.33
2018-04-01T10:54:43.315Z,4.50
2018-04-01T10:57:09.204Z,5.03
2018-04-01T10:59:35.910Z,7.17
2018-04-01T11:02:02.205Z,6.73
2018-04-01T11:04:28.107Z,6.13
2018-04-01T11:06:54.023Z,5.33
2018-04-01T11:09:19.911Z,5.60
2018-04-01T11:11:45.786Z,5.53
2018-04-01T11:14:11.755Z,5.17
2018-04-01T11:16:38.377Z,5.63
2018-04-01T11:19:04.300Z,5.27
2018-04-01T11:21:30.247Z,7.97
2018-04-01T11:23:56.151Z,10.40
2018-04-01T11:26:22.088Z,12.00
2018-04-01T11:28:48.097Z,8.50
2018-04-01T11:31:14.034Z,9.53
2018-04-01T11:33:39.903Z,11.70
2018-04-01T11:36:05.836Z,10.93
2018-04-01T11:38:31.763Z,13.33
2018-04-01T11:40:57.659Z,14.60
2018-04-01T11:43:24.264Z,12.63
2018-04-01T11:45:50.171Z,13.10
2018-04-01T11:48:16.054Z,12.13
2018-04-01T11:50:41.932Z,13.00
2018-04-01T11:53:07.859Z,12.90
2018-04-01T11:55:33.806Z,11.33
2018-04-01T11:57:59.697Z,15.07
2018-04-01T12:00:26.449Z,14.50
2018-04-01T12:02:53.152Z,14.00
2018-04-01T12:05:19.742Z,11.20
2018-04-01T12:07:45.676Z,12.30
2018-04-01T12:10:11.569Z,15.10
2018-04-01T12:12:37.501Z,12.83
2018-04-01T12:15:03.445Z,11.50
2018-04-01T12:17:29.352Z,15.83
2018-04-01T12:19:55.221Z,24.87
2018-04-01T12:22:21.145Z,11.80
2018-04-01T12:24:47.087Z,13.53
2018-04-01T12:27:12.992Z,17.43
2018-04-01T12:29:38.911Z,13.33
2018-04-01T12:32:04.884Z,12.40
2018-04-01T12:34:30.778Z,13.50
2018-04-01T12:36:56.729Z,10.70
2018-04-01T12:39:22.679Z,11.67
2018-04-01T12:41:48.587Z,10.47
2018-04-01T12:44:14.487Z,10.70
2018-04-01T12:46:40.375Z,11.23
2018-04-01T12:49:06.299Z,12.93
2018-04-01T12:51:32.212Z,12.37
2018-04-01T12:53:58.087Z,15.33
2018-04-01T12:56:23.999Z,11.40
2018-04-01T12:58:49.918Z,17.73
2018-04-01T13:01:15.803Z,14.43
2018-04-01T13:03:41.723Z,8.70
2018-04-01T13:06:07.666Z,13.07
2018-04-01T13:08:33.725Z,10.40
2018-04-01T13:10:59.681Z,10.87
2018-04-01T13:13:27.338Z,11.07
2018-04-01T13:15:53.235Z,10.00
2018-04-01T13:18:19.156Z,10.57
2018-04-01T13:20:45.036Z,8.50
2018-04-01T13:23:10.935Z,8.97
2018-04-01T13:25:36.910Z,8.20
2018-04-01T13:28:03.588Z,13.90
2018-04-01T13:30:29.475Z,11.03
2018-04-01T13:32:55.386Z,11.40
2018-04-01T13:35:21.280Z,8.70
2018-04-01T13:37:47.882Z,12.10
2018-04-01T13:40:14.070Z,12.63
2018-04-01T13:42:40.753Z,13.30
2018-04-01T13:45:06.674Z,9.20
2018-04-01T13:47:32.699Z,10.00
2018-04-01T13:49:58.599Z,11.53
2018-04-01T13:52:24.643Z,10.87
2018-04-01T13:54:50.606Z,14.20
2018-04-01T13:57:16.532Z,11.10
2018-04-01T13:59:42.485Z,15.53
2018-04-01T14:02:08.565Z,10.47
2018-04-01T14:04:34.534Z,15.67
2018-04-01T14:07:00.379Z,14.50
2018-04-01T14:09:26.323Z,9.93
2018-04-01T14:11:52.218Z,10.23
2018-04-01T14:14:18.115Z,11.30
2018-04-01T14:16:44.781Z,10.60
2018-04-01T14:19:10.697Z,14.40
2018-04-01T14:21:36.597Z,9.63
2018-04-01T14:24:02.567Z,13.30
2018-04-01T14:26:28.480Z,10.03
2018-04-01T14:28:54.453Z,13.93
2018-04-01T14:31:20.374Z,11.13
2018-04-01T14:33:46.273Z,13.73
2018-04-01T14:36:12.206Z,11.23
2018-04-01T14:38:38.144Z,9.20
2018-04-01T14:41:04.060Z,9.90
2018-04-01T14:43:30.678Z,13.17
2018-04-01T14:45:56.565Z,19.70
2018-04-01T14:48:22.459Z,17.67
2018-04-01T14:50:48.343Z,13.60
2018-04-01T14:53:14.262Z,16.20
2018-04-01T14:55:40.158Z,19.80
2018-04-01T14:58:06.064Z,16.90
2018-04-01T15:00:31.999Z,10.50
2018-04-01T15:02:58.018Z,8.33
2018-04-01T15:05:23.967Z,8.27
2018-04-01T15:07:49.999Z,10.33
2018-04-01T15:10:15.900Z,8.37
2018-04-01T15:12:41.776Z,16.07
2018-04-01T15:15:07.653Z,10.30
2018-04-01T15:17:34.312Z,13.27
2018-04-01T15:20:00.941Z,15.53
2018-04-01T15:22:26.933Z,14.60
2018-04-01T15:24:53.119Z,14.90
2018-04-01T15:27:18.993Z,11.83
2018-04-01T15:29:44.880Z,16.90
2018-04-01T15:32:10.784Z,17.33
2018-04-01T15:34:36.729Z,10.40
2018-04-01T15:37:02.742Z,10.20
2018-04-01T15:39:28.655Z,12.40
2018-04-01T15:41:54.530Z,15.33
2018-04-01T15:44:20.496Z,10.00
2018-04-01T15:46:47.310Z,11.17
2018-04-01T15:49:13.217Z,10.60
2018-04-01T15:51:39.091Z,11.00
2018-04-01T15:54:05.251Z,15.90
2018-04-01T15:56:31.139Z,24.43
2018-04-01T16:01:50.667Z,18.60
2018-04-01T16:04:16.583Z,12.87
2018-04-01T16:06:42.504Z,7.80
2018-04-01T16:09:08.399Z,10.77
2018-04-01T16:11:34.784Z,13.87
2018-04-01T16:14:00.672Z,9.87
2018-04-01T16:16:26.579Z,10.60
2018-04-01T16:18:52.504Z,9.70
2018-04-01T16:21:18.391Z,15.03
2018-04-01T16:23:45.025Z,21.20
2018-04-01T16:26:10.953Z,17.00
2018-04-01T16:28:36.951Z,14.47
2018-04-01T16:31:02.980Z,13.30
2018-04-01T16:33:28.919Z,10.53
2018-04-01T16:35:55.505Z,8.50
2018-04-01T16:38:21.479Z,14.87
2018-04-01T16:40:47.352Z,18.43
2018-04-01T16:43:13.232Z,7.37
2018-04-01T16:45:39.136Z,12.50
2018-04-01T16:48:05.067Z,14.43
2018-04-01T16:50:30.978Z,15.80
2018-04-01T16:52:56.936Z,19.20
2018-04-01T16:55:22.814Z,15.13
2018-04-01T16:57:48.718Z,18.10
2018-04-01T17:00:14.839Z,11.20
2018-04-01T17:02:40.738Z,9.60
2018-04-01T17:05:06.769Z,13.63
2018-04-01T17:07:32.695Z,12.80
2018-04-01T17:09:58.588Z,14.33
2018-04-01T17:12:24.640Z,10.10
2018-04-01T17:14:50.608Z,22.53
2018-04-01T17:17:16.501Z,10.17
2018-04-01T17:19:42.755Z,19.70
2018-04-01T17:22:08.647Z,14.80
2018-04-01T17:24:34.913Z,13.77
2018-04-01T17:27:01.231Z,8.43
2018-04-01T17:29:27.131Z,12.87
2018-04-01T17:31:53.039Z,12.07
2018-04-01T17:34:19.709Z,18.27
2018-04-01T17:36:45.597Z,19.13
2018-04-01T17:39:11.565Z,18.37
2018-04-01T17:41:37.498Z,20.53
2018-04-01T17:44:04.239Z,16.63
2018-04-01T17:46:30.179Z,17.77
2018-04-01T17:48:56.853Z,13.50
2018-04-01T17:51:22.783Z,16.73
2018-04-01T17:53:49.429Z,22.83
2018-04-01T17:56:16.064Z,20.17
2018-04-01T17:58:41.981Z,13.13
2018-04-01T18:01:07.881Z,12.70
2018-04-01T18:03:33.800Z,24.40
2018-04-01T18:05:59.716Z,16.00
2018-04-01T18:08:25.618Z,19.20
2018-04-01T18:10:51.551Z,14.33
2018-04-01T18:13:17.441Z,18.90
2018-04-01T18:15:43.430Z,15.57
2018-04-01T18:18:09.612Z,13.53
2018-04-01T18:20:35.555Z,18.77
2018-04-01T18:23:01.451Z,14.07
2018-04-01T18:25:27.373Z,17.23
2018-04-01T18:27:53.301Z,25.43
2018-04-01T18:30:19.216Z,17.37
2018-04-01T18:32:45.135Z,17.93
2018-04-01T18:35:11.103Z,18.60
2018-04-01T18:37:37.032Z,19.13
2018-04-01T18:40:03.053Z,21.70
2018-04-01T18:42:28.961Z,19.97
2018-04-01T18:44:54.903Z,19.87
2018-04-01T18:47:20.773Z,21.67
2018-04-01T18:49:46.671Z,33.60
2018-04-01T18:52:12.879Z,20.80
2018-04-01T18:54:39.497Z,32.27
2018-04-01T18:57:05.438Z,28.77
2018-04-01T18:59:31.343Z,24.00
2018-04-01T19:01:57.242Z,22.97
2018-04-01T19:04:24.110Z,27.00
2018-04-01T19:06:50.078Z,21.77
2018-04-01T19:09:15.961Z,20.77
2018-04-01T19:11:42.628Z,25.60
2018-04-01T19:14:08.936Z,25.53
2018-04-01T19:16:43.929Z,28.60
2018-04-01T19:19:10.247Z,30.53
2018-04-01T19:21:37.301Z,35.13
2018-04-01T19:24:03.846Z,26.43
2018-04-01T19:26:30.667Z,31.73
2018-04-01T19:28:56.704Z,33.00
2018-04-01T19:31:22.738Z,30.40
2018-04-01T19:33:48.782Z,34.03
2018-04-01T19:36:14.804Z,26.83
2018-04-01T19:38:40.831Z,29.17
2018-04-01T19:41:07.318Z,36.50
2018-04-01T19:43:33.395Z,38.53
2018-04-01T19:45:59.438Z,36.57
2018-04-01T19:48:25.515Z,45.27
2018-04-01T19:50:51.539Z,44.90
2018-04-01T19:53:17.598Z,50.30
2018-04-01T19:55:43.628Z,55.77
2018-04-01T19:58:09.698Z,60.03
2018-04-01T20:00:36.604Z,64.23
2018-04-01T20:03:02.673Z,70.10
2018-04-01T20:05:28.728Z,71.13
2018-04-01T20:07:55.652Z,78.33
2018-04-01T20:10:21.677Z,73.03
2018-04-01T20:12:47.695Z,67.30
2018-04-01T20:15:13.786Z,72.33
2018-04-01T20:17:39.833Z,68.03
2018-04-01T20:20:06.648Z,66.53
2018-04-01T20:22:32.745Z,63.00
2018-04-01T20:24:58.795Z,51.13
2018-04-01T20:27:25.386Z,52.40
2018-04-01T20:29:51.383Z,53.80
2018-04-01T20:32:17.557Z,55.90
2018-04-01T20:34:43.832Z,57.20
2018-04-01T20:37:10.604Z,54.83
2018-04-01T20:39:36.655Z,43.63
2018-04-01T20:42:02.883Z,47.53
2018-04-01T20:44:28.971Z,41.13
2018-04-01T20:46:55.003Z,46.47
2018-04-01T20:49:21.112Z,40.63
2018-04-01T20:51:47.101Z,41.57
2018-04-01T20:54:13.928Z,41.00
2018-04-01T20:56:39.960Z,35.07
2018-04-01T20:59:06.095Z,38.50
2018-04-01T21:01:32.174Z,37.63
2018-04-01T21:03:58.226Z,32.27
2018-04-01T21:06:24.983Z,28.33
2018-04-01T21:08:51.864Z,33.57
2018-04-01T21:11:17.970Z,28.80
2018-04-01T21:13:44.815Z,31.63
2018-04-01T21:16:11.627Z,26.67
2018-04-01T21:18:37.682Z,28.93
2018-04-01T21:21:03.776Z,21.60
2018-04-01T21:23:29.972Z,24.07
2018-04-01T21:25:56.027Z,23.80
2018-04-01T21:28:23.087Z,16.90
2018-04-01T21:30:49.870Z,24.13
2018-04-01T21:33:15.941Z,24.33
2018-04-01T21:35:42.074Z,27.20
2018-04-01T21:38:08.118Z,27.83
2018-04-01T21:40:34.167Z,27.33
2018-04-01T21:43:00.680Z,23.97
2018-04-01T21:45:26.814Z,24.87
2018-04-01T21:47:52.907Z,20.10
2018-04-01T21:50:19.984Z,26.50
2018-04-01T21:52:46.776Z,23.90
2018-04-01T21:55:12.786Z,26.93
2018-04-01T21:57:38.903Z,22.33
2018-04-01T22:00:05.789Z,22.60
2018-04-01T22:02:31.784Z,23.73
2018-04-01T22:04:57.827Z,24.13
2018-04-01T22:07:24.620Z,20.53
2018-04-01T22:09:50.647Z,28.90
2018-04-01T22:12:16.731Z,31.43
2018-04-01T22:14:42.790Z,26.37
2018-04-01T22:17:08.802Z,26.80
2018-04-01T22:19:35.212Z,28.80
2018-04-01T22:22:01.240Z,45.57
2018-04-01T22:24:27.350Z,40.00
2018-04-01T22:26:53.435Z,35.33
2018-04-01T22:29:19.531Z,40.00
2018-04-01T22:31:45.894Z,39.70
2018-04-01T22:34:12.671Z,46.17
2018-04-01T22:36:38.730Z,48.10
2018-04-01T22:39:04.811Z,48.33
2018-04-01T22:41:30.863Z,50.50
2018-04-01T22:43:56.930Z,49.43
2018-04-01T22:46:22.983Z,45.77
2018-04-01T22:48:49.039Z,44.90
2018-04-01T22:51:15.075Z,37.67
2018-04-01T22:53:41.146Z,31.80
2018-04-01T22:56:07.275Z,38.83
2018-04-01T22:58:33.499Z,41.27
2018-04-01T23:01:00.329Z,33.37
2018-04-01T23:03:26.321Z,31.10
2018-04-01T23:05:52.391Z,38.73
2018-04-01T23:08:18.448Z,37.77
2018-04-01T23:10:44.491Z,31.90
2018-04-01T23:13:10.543Z,37.13
2018-04-01T23:15:36.738Z,29.37
2018-04-01T23:18:03.666Z,30.80
2018-04-01T23:20:29.741Z,30.83
2018-04-01T23:22:55.852Z,35.43
2018-04-01T23:25:21.894Z,33.90
2018-04-01T23:27:47.944Z,33.27
2018-04-01T23:30:14.006Z,37.90
2018-04-01T23:32:40.057Z,42.27
2018-04-01T23:35:06.241Z,34.80
2018-04-01T23:37:32.286Z,26.60
2018-04-01T23:39:58.315Z,34.57
2018-04-01T23:42:24.318Z,34.63
2018-04-01T23:44:50.364Z,32.43
2018-04-01T23:47:17.183Z,27.37
2018-04-01T23:49:43.359Z,34.80
2018-04-01T23:52:10.686Z,26.00
2018-04-01T23:54:36.911Z,31.17
2018-04-01T23:57:02.963Z,24.73
2018-04-01T23:59:29.031Z,29.73
